Accueil
METAR-TAF:

Aéroports :

Carcassonne, France

Aéroport de Carcassonne Salvaza

latitude: 43-13N, longitude: 002-19E, altitude: 130 m

Observation

Le bulletin a été fait il y a 10 minutes, à 22:00 UTC
Vent 4 kt de ouest, variant entre ouest/sud-ouest et nord-ouest
Température 18°C
Humidité 68%
Pression 1022 hPa
Visibilité 10 km ou plus
pas de nuages en-dessous de 1500 mètres et pas de cumulonimbus.

METAR: LFMK 272200Z AUTO 28004KT 250V310 CAVOK 18/12 Q1022

Heure: 00:10 (22:10 UTC)

Prévision

Le bulletin a été fait il y a 8 heures et 10 minutes, à 14:00 UTC
Prévision valable du 27 à 15 UTC au 28 à 15 UTC
Vent 16 kt de ouest/nord-ouest
Visibilité 10 km ou plus
pas de nuages en-dessous de 1500 mètres et pas de cumulonimbus.

TAF: LFMK 271400Z 2715/2815 29016KT CAVOK

METAR-TAF

Observations et prévisions météorologiques de plus de 4000 aéroports (messages METAR et TAF).

Les stations disponibles sont représentées par des disques jaunes et rouges sur la carte.

Passer la souris dessus pour voir le nom de la station.

Cliquer dessus pour voir les observations et prévisions météorologiques.

Pour changer de carte: cliquez sur les boutons verts avec une croix noire pour zoomer, sur le bouton vert avec un tiret pour effectuer un zoom arrière, ou sur les flèches vertes pour les cartes adjacentes.


METAR-TAF: